Eastborough, Kansas
Current Conditions -  °F | °C
As of 1:58 AM on Monday 24 Nov 2014 (Local Time) from KIAB Reporting Station
Clear Clear  
Wind Chill: 32°   Ceiling: Unl
Heat Index: 40°   Visibility: 10mi
Dew Point: 24°   Wind: 13mph
Humidity: 53%   Direction: 320°NW
Pressure: 29.73"   Gusts: NA
Location:  37.6676°N, 97.2266°W
Report Text: KIAB 240758Z AUTO 32011KT 10SM CLR 04/M04 A2973 RMK AO2 SLP074 T00431045
Loading
Personal Weather Stations






























Interactive Weather Map New forecast layout! Learn more

10-Day Weather Forecast

Advertisements
Track Severe Weather on mobile